Terminal Aerodrome Forecast
Issued by NWS

Home | Current Version | Previous Version | Graphics & Text | Print | Product List | Glossary On
Versions: 1 2 3 4 5 6 7 8 9 10 11 12 13 14 15
000
FTUS43 KICT 192300
TAFSLN
TAF
KSLN 192340Z 2000/2024 17007KT P6SM SCT070
     FM200500 22005KT P6SM SKC
     FM201100 01007KT P6SM SKC=

USA.gov is the U.S. government's official web portal to all federal, state and local government web resources and services.